Time;durP1;ratioP1;P1;durP2;ratioP2;P2;SDS_P1;SDS_P2;PMS_P1;PMS_P2;Temp;Humidity;BMP_temperature;BMP_pressure;BME280_temperature;BME280_humidity;BME280_pressure;Samples;Min_cycle;Max_cycle;Signal;HPM_P1;HPM_P2
2022/02/17 00:02:16;;;;;;;0.10;0.10;;;;;;;9.28;68.38;96433.72;6225759;28;20232;-71
2022/02/17 00:05:20;;;;;;;0.10;0.10;;;;;;;9.06;70.07;96422.59;6215652;28;20240;-70
2022/02/17 00:08:23;;;;;;;0.20;0.20;;;;;;;8.91;70.38;96431.06;6205856;28;20238;-71
2022/02/17 00:11:25;;;;;;;0.50;0.23;;;;;;;8.78;71.17;96428.78;6216249;28;20243;-72
2022/02/17 00:14:27;;;;;;;0.10;0.10;;;;;;;8.67;70.81;96434.19;6224519;28;20244;-71
2022/02/17 00:17:29;;;;;;;1.13;0.10;;;;;;;8.60;72.16;96443.59;6223099;28;20232;-71
2022/02/17 00:20:31;;;;;;;0.20;0.20;;;;;;;8.67;72.15;96448.19;6207600;28;20231;-71
2022/02/17 00:23:33;;;;;;;0.27;0.27;;;;;;;8.80;71.53;96434.69;6224218;28;20239;-71
2022/02/17 00:26:35;;;;;;;0.10;0.10;;;;;;;8.87;70.57;96436.63;6223791;28;20235;-71
2022/02/17 00:29:37;;;;;;;0.40;0.40;;;;;;;8.88;70.52;96430.38;6225462;28;20630;-71
2022/02/17 00:32:40;;;;;;;0.40;0.27;;;;;;;8.96;69.68;96442.84;6217842;28;20309;-72
2022/02/17 00:35:42;;;;;;;0.30;0.30;;;;;;;9.02;68.98;96444.06;6211192;28;20293;-71
2022/02/17 00:38:45;;;;;;;0.40;0.40;;;;;;;9.06;68.60;96427.84;6224559;28;20228;-71
2022/02/17 00:41:49;;;;;;;0.73;0.40;;;;;;;9.05;68.44;96414.81;6223620;28;20654;-71
2022/02/17 00:44:52;;;;;;;0.47;0.40;;;;;;;8.97;69.57;96398.94;6215524;28;20604;-71
2022/02/17 00:47:54;;;;;;;0.30;0.30;;;;;;;8.83;69.57;96429.16;6232628;28;20262;-71
2022/02/17 00:50:57;;;;;;;0.80;0.30;;;;;;;8.74;69.82;96428.22;6223708;28;20277;-71
2022/02/17 00:53:59;;;;;;;2.30;0.57;;;;;;;8.69;71.18;96430.44;6207732;28;20697;-72
2022/02/17 00:57:03;;;;;;;1.30;0.43;;;;;;;8.63;71.73;96428.38;6229337;28;20227;-71
2022/02/17 01:00:07;;;;;;;1.47;0.50;;;;;;;8.52;73.34;96425.91;6229339;28;20216;-70
2022/02/17 01:03:11;;;;;;;0.40;0.40;;;;;;;8.38;74.57;96421.09;6227887;28;20205;-71
2022/02/17 01:06:13;;;;;;;1.33;0.60;;;;;;;8.24;76.84;96421.50;6227755;28;20215;-70
2022/02/17 01:09:16;;;;;;;1.47;0.50;;;;;;;8.12;77.18;96402.41;6226685;28;20228;-71
2022/02/17 01:12:18;;;;;;;1.67;0.80;;;;;;;8.02;78.39;96396.31;6226649;28;20338;-71
2022/02/17 01:15:20;;;;;;;1.40;0.30;;;;;;;7.91;78.45;96386.78;6226671;28;20239;-71
2022/02/17 01:18:22;;;;;;;0.70;0.40;;;;;;;7.85;78.80;96371.59;6227366;28;20260;-71
2022/02/17 01:21:24;;;;;;;1.47;0.60;;;;;;;7.76;79.84;96375.06;6243725;28;20587;-71
2022/02/17 01:24:26;;;;;;;2.10;0.60;;;;;;;7.70;80.75;96357.19;6228835;28;20243;-72
2022/02/17 01:27:28;;;;;;;0.53;0.50;;;;;;;7.65;81.31;96354.16;6211786;28;20572;-72
2022/02/17 01:30:30;;;;;;;0.97;0.70;;;;;;;7.61;81.85;96348.34;6228151;28;20244;-71
2022/02/17 01:33:34;;;;;;;6.10;1.33;;;;;;;7.57;82.74;96336.50;6207258;28;20775;-72
2022/02/17 01:36:45;;;;;;;1.70;0.87;;;;;;;7.55;82.44;96327.09;6224755;28;20616;-72
2022/02/17 01:39:47;;;;;;;3.63;0.90;;;;;;;7.51;82.85;96320.44;6218820;28;20282;-71
2022/02/17 01:42:50;;;;;;;3.23;0.70;;;;;;;7.51;83.41;96326.53;6211851;28;20234;-72
2022/02/17 01:45:52;;;;;;;1.33;1.00;;;;;;;7.51;83.78;96308.16;6216795;28;20239;-72
2022/02/17 01:48:55;;;;;;;3.33;1.13;;;;;;;7.50;84.12;96313.53;6226520;28;20264;-72
2022/02/17 01:51:56;;;;;;;3.37;0.70;;;;;;;7.46;84.77;96309.53;6228692;28;20233;-72
2022/02/17 01:54:59;;;;;;;1.93;0.70;;;;;;;7.43;84.59;96305.38;6226984;28;20317;-72
2022/02/17 01:58:01;;;;;;;1.43;0.80;;;;;;;7.41;85.37;96310.78;6226640;28;20281;-73
2022/02/17 02:01:03;;;;;;;4.17;1.00;;;;;;;7.38;84.97;96316.31;6227917;28;20231;-72
2022/02/17 02:04:06;;;;;;;1.47;0.70;;;;;;;7.38;85.82;96297.13;6228627;28;20588;-71
2022/02/17 02:07:10;;;;;;;1.50;0.70;;;;;;;7.35;85.23;96292.13;6209362;28;20238;-72
2022/02/17 02:10:12;;;;;;;1.23;0.90;;;;;;;7.36;85.78;96263.13;6205526;28;20234;-72
2022/02/17 02:13:14;;;;;;;1.27;0.63;;;;;;;7.33;86.03;96245.03;6191746;28;20247;-72
2022/02/17 02:16:18;;;;;;;0.70;0.70;;;;;;;7.32;86.21;96248.63;6213439;28;20235;-72
2022/02/17 02:19:21;;;;;;;0.50;0.50;;;;;;;7.35;86.40;96234.38;6226541;28;20260;-72
2022/02/17 02:22:31;;;;;;;1.03;0.60;;;;;;;7.36;86.74;96229.00;6225872;28;20596;-73
2022/02/17 02:25:33;;;;;;;1.10;0.70;;;;;;;7.37;86.31;96221.97;6225750;28;20581;-72
2022/02/17 02:28:35;;;;;;;0.73;0.63;;;;;;;7.36;86.53;96213.25;6225213;28;20237;-72
2022/02/17 02:31:39;;;;;;;1.10;0.43;;;;;;;7.37;86.97;96216.72;6209499;28;20704;-73
2022/02/17 02:34:42;;;;;;;0.50;0.50;;;;;;;7.31;87.30;96204.97;6227322;28;20251;-73
2022/02/17 02:37:49;;;;;;;1.97;0.50;;;;;;;7.30;87.93;96202.47;6217721;28;20240;-73
2022/02/17 02:40:58;;;;;;;0.90;0.60;;;;;;;7.26;87.15;96204.56;6215124;28;20224;-72
2022/02/17 02:44:11;;;;;;;0.70;0.60;;;;;;;7.27;87.54;96208.84;6218688;28;20701;-73
2022/02/17 02:47:20;;;;;;;1.10;0.70;;;;;;;7.35;87.98;96198.47;6211001;28;20224;-72
2022/02/17 02:50:24;;;;;;;0.63;0.60;;;;;;;7.39;88.16;96209.50;6225296;28;20230;-73
2022/02/17 02:53:26;;;;;;;0.80;0.60;;;;;;;7.45;88.52;96210.75;6225614;28;20232;-72
2022/02/17 02:56:28;;;;;;;1.40;0.63;;;;;;;7.47;88.79;96217.53;6224959;28;20777;-73
2022/02/17 02:59:31;;;;;;;1.57;0.40;;;;;;;7.55;89.36;96204.53;6226706;28;20321;-73
2022/02/17 03:02:35;;;;;;;0.43;0.30;;;;;;;7.90;89.22;96216.19;6226960;28;20229;-72
2022/02/17 03:05:43;;;;;;;0.30;0.20;;;;;;;8.65;87.91;96181.88;6224770;28;20231;-73
2022/02/17 03:08:47;;;;;;;0.77;0.20;;;;;;;9.17;84.56;96190.78;6226920;28;20586;-72
2022/02/17 03:11:52;;;;;;;0.37;0.10;;;;;;;9.61;80.17;96148.63;6219567;28;20238;-73
2022/02/17 03:14:55;;;;;;;0.20;0.20;;;;;;;10.04;79.70;96144.28;6227690;28;20695;-73
2022/02/17 03:18:01;;;;;;;0.10;0.10;;;;;;;10.14;78.79;96164.28;6224296;28;20231;-74
2022/02/17 03:21:04;;;;;;;0.10;0.10;;;;;;;10.16;77.91;96157.03;6208770;28;20211;-74
2022/02/17 03:24:06;;;;;;;0.20;0.10;;;;;;;10.35;75.93;96156.00;6226135;28;20557;-73
2022/02/17 03:27:17;;;;;;;0.10;0.10;;;;;;;10.75;73.82;96130.72;6224827;28;20211;-73
2022/02/17 03:30:20;;;;;;;0.10;0.10;;;;;;;10.77;72.32;96121.66;6223956;28;21461;-72
2022/02/17 03:33:24;;;;;;;0.10;0.10;;;;;;;10.95;72.37;96105.66;6209977;28;20741;-72
2022/02/17 03:36:31;;;;;;;0.10;0.10;;;;;;;11.08;71.22;96100.69;6224222;28;20240;-73
2022/02/17 03:39:34;;;;;;;0.10;0.10;;;;;;;11.31;69.95;96096.41;6223451;28;20239;-72
2022/02/17 03:42:45;;;;;;;0.10;0.10;;;;;;;11.28;68.73;96104.66;6215119;28;20332;-72
2022/02/17 03:45:48;;;;;;;0.23;0.10;;;;;;;11.32;69.03;96105.16;6224411;28;20225;-73
2022/02/17 03:48:51;;;;;;;0.10;0.10;;;;;;;11.46;68.23;96091.28;6226501;28;20696;-73
2022/02/17 03:51:56;;;;;;;0.37;0.20;;;;;;;11.66;66.97;96092.56;6224144;28;20244;-72
2022/02/17 03:54:58;;;;;;;0.10;0.10;;;;;;;11.71;66.30;96116.66;6224897;28;20260;-71
2022/02/17 03:58:01;;;;;;;0.20;0.20;;;;;;;11.80;65.78;96101.63;6207517;28;20726;-72
2022/02/17 04:01:07;;;;;;;0.20;0.10;;;;;;;11.81;66.06;96066.28;6208719;28;20331;-71
2022/02/17 04:04:15;;;;;;;0.10;0.10;;;;;;;11.63;66.67;96074.41;6208719;28;20614;-71
2022/02/17 04:07:17;;;;;;;0.10;0.10;;;;;;;11.59;66.08;96067.81;6224948;28;20601;-72
2022/02/17 04:10:21;;;;;;;0.40;0.10;;;;;;;11.61;66.86;96057.91;6201399;28;20704;-72
2022/02/17 04:13:23;;;;;;;0.20;0.10;;;;;;;11.44;67.02;96064.22;6209833;28;20244;-72
2022/02/17 04:16:26;;;;;;;0.10;0.10;;;;;;;11.46;66.61;96059.59;6223865;28;20223;-72
2022/02/17 04:19:57;;;;;;;0.10;0.10;;;;;;;11.48;66.79;96060.22;6224089;28;20233;-72
2022/02/17 04:23:32;;;;;;;0.30;0.10;;;;;;;11.66;65.68;96058.22;6224613;28;20282;-72
2022/02/17 04:26:34;;;;;;;0.10;0.10;;;;;;;11.80;64.78;96040.84;6224964;28;20225;-73
2022/02/17 04:30:09;;;;;;;0.10;0.10;;;;;;;11.79;64.70;96053.25;6219367;28;20238;-72
2022/02/17 04:33:11;;;;;;;0.10;0.10;;;;;;;11.83;64.11;96041.34;6214183;28;20586;-72
2022/02/17 04:36:30;;;;;;;0.30;0.20;;;;;;;11.88;63.88;96013.59;6209053;28;20276;-73
2022/02/17 04:39:32;;;;;;;0.20;0.20;;;;;;;11.91;63.69;95992.91;6228018;28;20228;-72
2022/02/17 04:42:36;;;;;;;0.10;0.10;;;;;;;11.82;64.29;95997.41;6219835;28;20823;-72
2022/02/17 04:45:39;;;;;;;1.00;0.20;;;;;;;11.82;63.91;95973.63;6214170;28;20237;-72
2022/02/17 04:48:41;;;;;;;0.10;0.10;;;;;;;11.72;64.68;95972.16;6205042;28;20226;-72
2022/02/17 04:51:48;;;;;;;0.10;0.10;;;;;;;11.48;66.14;96015.31;6188646;28;20238;-72
2022/02/17 04:54:53;;;;;;;0.10;0.10;;;;;;;11.84;63.85;95991.94;6206323;28;20239;-71
2022/02/17 04:57:55;;;;;;;0.10;0.10;;;;;;;11.88;64.05;96009.09;6210055;28;20246;-72
2022/02/17 05:00:57;;;;;;;0.43;0.20;;;;;;;11.94;63.59;96019.00;6204773;28;20233;-73
2022/02/17 05:04:21;;;;;;;0.27;0.20;;;;;;;12.12;62.81;96000.22;6204690;28;20285;-71
2022/02/17 05:07:32;;;;;;;0.27;0.20;;;;;;;12.31;62.59;95989.19;6203747;28;20362;-73
2022/02/17 05:10:38;;;;;;;1.40;0.20;;;;;;;12.42;62.10;95980.84;6212918;28;20323;-72
2022/02/17 05:13:41;;;;;;;0.10;0.10;;;;;;;12.39;61.70;95952.09;6229464;28;20276;-72
2022/02/17 05:16:50;;;;;;;0.20;0.20;;;;;;;12.27;62.34;95972.06;6227465;28;20246;-72
2022/02/17 05:19:53;;;;;;;0.20;0.10;;;;;;;12.18;62.18;95954.56;6229511;28;20237;-72
2022/02/17 05:23:01;;;;;;;0.10;0.10;;;;;;;12.12;62.88;95960.56;6212171;28;20260;-74
2022/02/17 05:26:15;;;;;;;0.10;0.10;;;;;;;12.02;62.69;95954.69;6227333;28;20242;-71
2022/02/17 05:29:24;;;;;;;0.20;0.10;;;;;;;12.10;62.57;95944.88;6226974;28;20372;-68
2022/02/17 05:32:46;;;;;;;0.13;0.13;;;;;;;12.06;63.63;95962.09;6228343;28;20251;-69
2022/02/17 05:36:07;;;;;;;0.10;0.10;;;;;;;11.92;63.08;95946.97;6199953;28;20332;-70
2022/02/17 05:39:30;;;;;;;0.10;0.10;;;;;;;12.06;62.62;95927.72;6200174;28;20235;-70
2022/02/17 05:42:35;;;;;;;0.10;0.10;;;;;;;12.17;61.46;95915.91;6201226;28;20761;-70
2022/02/17 05:45:39;;;;;;;0.20;0.20;;;;;;;12.08;62.49;95931.00;6184421;28;20227;-70
2022/02/17 05:48:41;;;;;;;0.10;0.10;;;;;;;11.96;62.74;95921.84;6201595;28;20793;-70
2022/02/17 05:51:44;;;;;;;0.10;0.10;;;;;;;11.91;63.30;95921.53;6199967;28;20306;-70
2022/02/17 05:54:46;;;;;;;0.10;0.10;;;;;;;11.88;63.80;95923.72;6200627;28;20340;-70
2022/02/17 05:57:48;;;;;;;0.90;0.13;;;;;;;12.03;62.44;95901.63;6200385;28;20245;-70
2022/02/17 06:00:50;;;;;;;0.10;0.10;;;;;;;12.33;60.91;95938.78;6199417;28;20326;-70
2022/02/17 06:03:52;;;;;;;0.10;0.10;;;;;;;12.24;61.72;95929.25;6183939;28;20263;-71
2022/02/17 06:06:54;;;;;;;0.17;0.10;;;;;;;12.09;62.19;95926.53;6201244;28;20263;-70
2022/02/17 06:09:56;;;;;;;0.20;0.20;;;;;;;12.00;62.14;95901.97;6223436;28;20625;-70
2022/02/17 06:12:58;;;;;;;0.10;0.10;;;;;;;12.25;61.34;95922.97;6203126;28;20608;-70
2022/02/17 06:16:00;;;;;;;0.10;0.10;;;;;;;12.53;60.16;95911.66;6226161;28;20674;-70
2022/02/17 06:19:02;;;;;;;0.10;0.10;;;;;;;12.61;60.50;95883.47;6226386;28;20781;-70
2022/02/17 06:22:05;;;;;;;2.10;0.53;;;;;;;12.58;59.68;95868.75;6225773;28;20944;-71
2022/02/17 06:25:07;;;;;;;0.40;0.23;;;;;;;12.61;60.06;95847.25;6227188;28;20313;-70
2022/02/17 06:28:10;;;;;;;0.10;0.10;;;;;;;12.51;60.00;95865.19;6225503;28;20344;-70
2022/02/17 06:31:12;;;;;;;0.20;0.20;;;;;;;12.66;58.44;95850.19;6209315;28;20319;-70
2022/02/17 06:34:14;;;;;;;0.10;0.10;;;;;;;12.68;59.18;95834.09;6226726;28;20703;-70
2022/02/17 06:37:16;;;;;;;0.13;0.13;;;;;;;12.96;57.04;95821.91;6227269;28;20230;-70
2022/02/17 06:40:20;;;;;;;0.10;0.10;;;;;;;13.00;57.42;95831.09;6220069;28;20262;-70
2022/02/17 06:43:26;;;;;;;0.10;0.10;;;;;;;12.92;57.06;95847.91;6226591;28;20239;-68
2022/02/17 06:46:29;;;;;;;1.10;0.20;;;;;;;13.03;57.35;95857.22;6226078;28;20239;-69
2022/02/17 06:49:32;;;;;;;1.40;0.10;;;;;;;13.07;56.91;95855.88;6225468;28;20706;-69
2022/02/17 06:52:36;;;;;;;0.10;0.10;;;;;;;13.22;56.33;95883.19;6226010;28;20235;-70
2022/02/17 06:55:38;;;;;;;0.10;0.10;;;;;;;13.21;56.85;95848.94;6227462;28;20242;-70
2022/02/17 06:58:41;;;;;;;0.40;0.20;;;;;;;13.38;55.42;95889.28;6227456;28;20235;-70
2022/02/17 07:01:43;;;;;;;0.10;0.10;;;;;;;13.70;54.21;95861.53;6208821;28;20498;-70
2022/02/17 07:04:45;;;;;;;0.63;0.20;;;;;;;13.88;54.11;95854.81;6226531;28;20657;-70
2022/02/17 07:07:48;;;;;;;1.60;0.10;;;;;;;13.88;53.82;95902.53;6224662;28;20228;-69
2022/02/17 07:10:56;;;;;;;0.20;0.20;;;;;;;13.96;54.12;95872.44;6215325;28;20919;-70
2022/02/17 07:13:58;;;;;;;0.20;0.20;;;;;;;13.95;54.19;95899.97;6222827;28;20236;-71
2022/02/17 07:17:00;;;;;;;0.10;0.10;;;;;;;14.09;53.17;95912.34;6224309;28;20238;-70
2022/02/17 07:20:03;;;;;;;0.10;0.10;;;;;;;14.13;53.35;95928.72;6224157;28;20225;-69
2022/02/17 07:23:05;;;;;;;0.20;0.20;;;;;;;14.11;53.66;95917.47;6224942;28;20761;-69
2022/02/17 07:26:07;;;;;;;0.10;0.10;;;;;;;13.91;53.80;95909.31;6226606;28;20716;-70
2022/02/17 07:29:09;;;;;;;0.20;0.10;;;;;;;13.75;53.57;95894.44;6225697;28;20223;-70
2022/02/17 07:32:12;;;;;;;0.40;0.20;;;;;;;13.74;54.03;95900.75;6216732;28;20228;-71
2022/02/17 07:35:14;;;;;;;0.10;0.10;;;;;;;13.84;52.73;95967.56;6213375;28;20374;-70
2022/02/17 07:38:16;;;;;;;0.10;0.10;;;;;;;13.87;53.36;95892.97;6214819;28;20235;-69
2022/02/17 07:41:18;;;;;;;0.10;0.10;;;;;;;13.70;54.33;95896.81;6203465;28;20240;-69
2022/02/17 07:44:25;;;;;;;0.10;0.10;;;;;;;13.48;54.39;95916.31;6216254;28;20600;-69
2022/02/17 07:47:27;;;;;;;0.20;0.20;;;;;;;13.48;54.26;95903.88;6223967;28;20228;-70
2022/02/17 07:50:30;;;;;;;0.10;0.10;;;;;;;13.49;53.74;95883.50;6224715;28;20723;-70
2022/02/17 07:53:36;;;;;;;0.47;0.20;;;;;;;13.70;52.20;95904.78;6225410;28;20676;-69
2022/02/17 07:56:38;;;;;;;0.10;0.10;;;;;;;13.76;52.21;95919.97;6226474;28;20227;-68
2022/02/17 07:59:41;;;;;;;0.10;0.10;;;;;;;13.67;52.89;95921.88;6224479;28;20399;-69
2022/02/17 08:02:43;;;;;;;0.10;0.10;;;;;;;13.56;52.81;95871.19;6208162;28;20234;-69
2022/02/17 08:05:45;;;;;;;0.20;0.20;;;;;;;13.73;51.45;95901.75;6227952;28;20717;-69
2022/02/17 08:08:48;;;;;;;0.27;0.13;;;;;;;13.79;51.37;95910.78;6232463;28;20269;-70
2022/02/17 08:11:53;;;;;;;1.13;0.20;;;;;;;13.84;50.37;95895.16;6225654;28;20707;-69
2022/02/17 08:14:57;;;;;;;1.40;0.10;;;;;;;14.12;49.63;95914.63;6228570;28;20723;-69
2022/02/17 08:17:59;;;;;;;1.73;0.40;;;;;;;14.13;50.64;95945.47;6230410;28;20231;-69
2022/02/17 08:21:01;;;;;;;0.10;0.10;;;;;;;14.33;49.13;95927.09;6229903;28;20220;-69
2022/02/17 08:24:05;;;;;;;0.30;0.10;;;;;;;14.41;49.53;95927.00;6228634;28;20204;-69
2022/02/17 08:27:11;;;;;;;0.30;0.30;;;;;;;14.42;50.25;95911.91;6230068;28;20208;-69
2022/02/17 08:30:14;;;;;;;0.80;0.10;;;;;;;14.46;49.36;95898.06;6205881;28;20734;-69
2022/02/17 08:33:20;;;;;;;2.70;0.23;;;;;;;14.87;47.50;95900.03;6227625;28;20297;-69
2022/02/17 08:36:22;;;;;;;0.10;0.10;;;;;;;15.03;46.99;95951.03;6229225;28;20765;-69
2022/02/17 08:39:24;;;;;;;1.80;0.27;;;;;;;15.27;47.40;95893.13;6229948;28;20694;-69
2022/02/17 08:42:26;;;;;;;1.10;0.20;;;;;;;15.27;48.01;95883.28;6218165;28;20289;-70
2022/02/17 08:45:28;;;;;;;0.10;0.10;;;;;;;15.42;46.37;95894.66;6228256;28;20239;-70
2022/02/17 08:48:30;;;;;;;0.10;0.10;;;;;;;15.46;45.95;95882.59;6228309;28;20777;-70
2022/02/17 08:51:32;;;;;;;0.20;0.20;;;;;;;15.58;45.45;95885.53;6229009;28;20251;-68
2022/02/17 08:54:35;;;;;;;0.10;0.10;;;;;;;15.81;44.72;95885.22;6229900;28;20238;-70
2022/02/17 08:57:37;;;;;;;0.10;0.10;;;;;;;16.03;44.83;95875.25;6227867;28;20243;-69
2022/02/17 09:00:39;;;;;;;0.10;0.10;;;;;;;16.05;43.79;95863.41;6228391;28;20234;-69
2022/02/17 09:03:41;;;;;;;0.10;0.10;;;;;;;16.16;43.62;95864.66;6228218;28;20231;-69
2022/02/17 09:06:43;;;;;;;0.10;0.10;;;;;;;16.14;44.19;95893.31;6211178;28;20231;-69
2022/02/17 09:09:46;;;;;;;0.40;0.13;;;;;;;16.18;43.80;95858.06;6224962;28;20327;-69
2022/02/17 09:12:49;;;;;;;0.30;0.20;;;;;;;16.37;43.68;95874.31;6213325;28;20239;-69
2022/02/17 09:15:51;;;;;;;2.20;0.20;;;;;;;16.50;43.24;95877.78;6229351;28;20318;-69
2022/02/17 09:18:53;;;;;;;2.03;0.20;;;;;;;16.65;42.38;95843.00;6227329;28;20267;-70
2022/02/17 09:21:58;;;;;;;0.10;0.10;;;;;;;16.66;42.33;95892.59;6229485;28;20699;-69
2022/02/17 09:25:00;;;;;;;0.53;0.10;;;;;;;16.56;43.23;95908.13;6228434;28;20238;-69
2022/02/17 09:28:06;;;;;;;0.10;0.10;;;;;;;16.81;42.48;95895.84;6226820;28;20699;-71
2022/02/17 09:31:13;;;;;;;0.37;0.20;;;;;;;17.27;42.16;95908.28;6229225;28;20228;-69
2022/02/17 09:34:15;;;;;;;0.10;0.10;;;;;;;17.46;40.32;95875.44;6219365;28;20243;-70
2022/02/17 09:37:17;;;;;;;2.03;0.10;;;;;;;17.64;40.83;95901.47;6228137;28;20598;-70
2022/02/17 09:40:20;;;;;;;1.20;0.20;;;;;;;17.65;40.58;95929.81;6221483;28;20314;-69
2022/02/17 09:43:25;;;;;;;0.30;0.17;;;;;;;17.35;41.84;95958.75;6208422;28;20224;-69
2022/02/17 09:46:28;;;;;;;0.60;0.10;;;;;;;17.12;43.09;95977.84;6226639;28;20235;-70
2022/02/17 09:49:30;;;;;;;0.10;0.10;;;;;;;16.48;45.61;95932.25;6226488;28;20246;-69
2022/02/17 09:52:32;;;;;;;1.50;0.10;;;;;;;15.81;46.87;95954.38;6226938;28;20228;-70
2022/02/17 09:55:35;;;;;;;0.67;0.20;;;;;;;15.64;48.13;95961.06;6226863;28;20289;-70
2022/02/17 09:58:37;;;;;;;0.30;0.20;;;;;;;15.54;49.94;95989.81;6227501;28;20231;-70
2022/02/17 10:01:39;;;;;;;0.27;0.27;;;;;;;15.14;55.68;96010.78;6227771;28;20237;-69
2022/02/17 10:04:42;;;;;;;0.97;0.10;;;;;;;14.69;57.92;96022.63;6227929;28;20235;-69
2022/02/17 10:07:45;;;;;;;0.20;0.20;;;;;;;14.50;58.39;96061.22;6227558;28;20228;-69
2022/02/17 10:10:47;;;;;;;0.13;0.10;;;;;;;14.56;59.20;96041.94;6231774;28;21098;-69
2022/02/17 10:14:04;;;;;;;0.10;0.10;;;;;;;14.77;56.90;96073.78;6228296;28;20743;-70
2022/02/17 10:17:09;;;;;;;0.20;0.20;;;;;;;15.03;55.42;96052.00;6227147;28;20243;-70
2022/02/17 10:20:12;;;;;;;0.43;0.13;;;;;;;14.89;54.78;96057.34;6226949;28;20249;-69
2022/02/17 10:23:13;;;;;;;0.43;0.20;;;;;;;14.76;55.12;96056.22;6228500;28;20235;-69
2022/02/17 10:26:20;;;;;;;0.10;0.10;;;;;;;14.36;56.41;96054.94;6208980;28;20607;-69
2022/02/17 10:29:23;;;;;;;0.30;0.13;;;;;;;14.12;57.97;96065.84;6217356;28;20231;-70
2022/02/17 10:32:27;;;;;;;0.60;0.20;;;;;;;13.89;59.90;96062.47;6215683;28;20228;-69
2022/02/17 10:35:29;;;;;;;1.17;0.20;;;;;;;13.31;62.77;96066.72;6215485;28;20231;-68
2022/02/17 10:38:31;;;;;;;0.97;0.30;;;;;;;13.11;64.72;96074.31;6212840;28;20262;-68
2022/02/17 10:41:54;;;;;;;1.50;0.20;;;;;;;12.71;67.53;96064.84;6224715;28;20239;-68
2022/02/17 10:44:56;;;;;;;0.87;0.50;;;;;;;12.44;68.45;96086.53;6227502;28;20267;-69
2022/02/17 10:48:24;;;;;;;0.37;0.20;;;;;;;12.28;70.11;96102.50;6226949;28;20238;-69
2022/02/17 10:51:30;;;;;;;0.47;0.20;;;;;;;12.25;70.78;96103.66;6240571;28;20241;-68
2022/02/17 10:54:32;;;;;;;0.67;0.30;;;;;;;12.04;70.15;96101.56;6225592;28;20243;-69
2022/02/17 10:57:34;;;;;;;3.23;0.40;;;;;;;12.01;70.80;96140.75;6226019;28;20614;-69
2022/02/17 11:00:36;;;;;;;0.80;0.20;;;;;;;11.91;72.48;96124.25;6226135;28;20628;-69
2022/02/17 11:03:39;;;;;;;0.27;0.20;;;;;;;11.83;71.92;96160.28;6226421;28;20260;-69
2022/02/17 11:06:44;;;;;;;1.07;0.30;;;;;;;11.83;72.22;96165.56;6226092;28;20593;-68
2022/02/17 11:09:46;;;;;;;1.30;0.30;;;;;;;11.77;72.33;96171.53;6222656;28;20588;-67
2022/02/17 11:12:50;;;;;;;1.03;0.27;;;;;;;11.72;72.99;96187.03;6204370;28;20606;-68
2022/02/17 11:15:54;;;;;;;0.33;0.30;;;;;;;11.88;74.01;96170.34;6225860;28;20229;-68
2022/02/17 11:18:58;;;;;;;1.70;0.40;;;;;;;11.83;71.38;96162.94;6226144;28;20327;-68
2022/02/17 11:22:04;;;;;;;1.90;0.50;;;;;;;11.77;72.77;96153.03;6225428;28;20245;-68
2022/02/17 11:25:12;;;;;;;4.73;0.63;;;;;;;11.53;72.77;96171.53;6226144;28;20283;-68
2022/02/17 11:28:17;;;;;;;1.67;0.57;;;;;;;11.49;73.39;96178.13;6224844;28;20233;-68
2022/02/17 11:31:20;;;;;;;1.83;0.43;;;;;;;11.39;74.42;96198.59;6224174;28;20268;-68
2022/02/17 11:34:41;;;;;;;2.00;0.70;;;;;;;11.18;73.95;96206.19;6225044;28;20694;-68
2022/02/17 11:37:45;;;;;;;1.20;0.60;;;;;;;10.97;74.19;96201.34;6224589;28;20235;-68
2022/02/17 11:40:57;;;;;;;0.60;0.40;;;;;;;10.90;74.54;96203.81;6220878;28;20234;-69
2022/02/17 11:44:16;;;;;;;2.73;0.80;;;;;;;10.98;74.68;96210.94;6224948;28;20233;-69
2022/02/17 11:47:21;;;;;;;3.53;0.70;;;;;;;10.88;75.75;96192.56;6222850;28;20220;-69
2022/02/17 11:50:46;;;;;;;1.97;0.70;;;;;;;10.96;76.24;96200.53;6224375;28;20239;-71
2022/02/17 11:54:15;;;;;;;3.73;0.93;;;;;;;11.15;75.47;96191.50;6223080;28;20266;-69
2022/02/17 11:57:35;;;;;;;2.30;0.83;;;;;;;11.44;74.77;96164.59;6238998;28;20760;-70
2022/02/17 12:00:38;;;;;;;4.73;1.00;;;;;;;11.58;74.37;96173.69;6222548;28;20232;-70
2022/02/17 12:04:01;;;;;;;2.47;0.90;;;;;;;11.42;72.83;96167.41;6223817;28;20654;-70
2022/02/17 12:07:34;;;;;;;2.97;1.07;;;;;;;11.29;73.32;96176.78;6225287;28;20225;-70
2022/02/17 12:10:39;;;;;;;3.87;1.00;;;;;;;11.08;74.15;96187.81;6214463;28;20240;-70
2022/02/17 12:13:41;;;;;;;2.37;0.87;;;;;;;10.87;73.25;96185.66;6222894;28;20236;-70
2022/02/17 12:16:43;;;;;;;2.93;1.10;;;;;;;10.86;73.79;96170.81;6222793;28;20243;-70
2022/02/17 12:19:46;;;;;;;3.63;1.37;;;;;;;10.71;73.52;96218.09;6224056;28;20858;-70
2022/02/17 12:22:55;;;;;;;2.47;1.10;;;;;;;10.64;72.92;96208.34;6222962;28;20228;-70
2022/02/17 12:25:58;;;;;;;3.57;1.30;;;;;;;10.79;74.00;96193.53;6222520;28;20232;-70
2022/02/17 12:29:00;;;;;;;4.43;1.30;;;;;;;10.84;73.66;96179.88;6223207;28;20772;-70
2022/02/17 12:32:06;;;;;;;2.33;1.23;;;;;;;10.57;74.19;96231.09;6222169;28;20307;-69
2022/02/17 12:35:08;;;;;;;2.33;1.10;;;;;;;10.49;74.61;96238.94;6181688;28;1207352;-69
2022/02/17 12:38:16;;;;;;;2.47;0.97;;;;;;;10.34;74.32;96239.53;6223866;28;20238;-69
2022/02/17 12:41:19;;;;;;;3.33;1.10;;;;;;;10.35;74.34;96206.09;6210229;28;20271;-70
2022/02/17 12:44:34;;;;;;;6.17;1.50;;;;;;;10.40;75.26;96214.34;6209656;28;20235;-70
2022/02/17 12:47:37;;;;;;;2.53;1.00;;;;;;;10.33;74.64;96176.41;6199308;28;20642;-70
2022/02/17 12:50:43;;;;;;;3.57;1.10;;;;;;;10.26;74.61;96189.41;6214363;28;20227;-70
2022/02/17 12:53:54;;;;;;;4.80;1.33;;;;;;;10.14;75.24;96202.97;6228594;28;20589;-70
2022/02/17 12:57:04;;;;;;;5.80;1.63;;;;;;;10.15;74.75;96196.72;6229280;28;20236;-71
2022/02/17 13:00:10;;;;;;;6.20;1.30;;;;;;;10.09;75.75;96211.34;6227355;28;20573;-70
2022/02/17 13:03:12;;;;;;;5.77;1.53;;;;;;;9.96;75.02;96224.97;6229331;28;20204;-71
2022/02/17 13:06:17;;;;;;;5.47;1.27;;;;;;;10.18;75.21;96218.34;6234272;28;20294;-71
2022/02/17 13:09:24;;;;;;;5.27;1.17;;;;;;;10.29;76.01;96223.34;6229097;28;20598;-71
2022/02/17 13:12:26;;;;;;;5.40;1.40;;;;;;;10.21;74.91;96211.94;6228122;28;20605;-71
2022/02/17 13:15:31;;;;;;;4.40;1.73;;;;;;;10.25;75.02;96215.94;6228757;28;20716;-71
2022/02/17 13:18:34;;;;;;;3.70;1.23;;;;;;;10.19;74.94;96241.09;6228756;28;20240;-70
2022/02/17 13:21:37;;;;;;;6.27;1.67;;;;;;;10.03;75.08;96245.41;6228838;28;20734;-66
2022/02/17 13:24:41;;;;;;;3.30;1.07;;;;;;;9.94;75.02;96273.53;6229662;28;20721;-72
2022/02/17 13:27:45;;;;;;;6.60;1.60;;;;;;;9.81;75.68;96284.44;6228322;28;20266;-72
2022/02/17 13:30:50;;;;;;;3.60;1.00;;;;;;;9.70;77.24;96291.75;6226575;28;20224;-72
2022/02/17 13:34:13;;;;;;;4.27;1.40;;;;;;;9.59;78.19;96322.63;6227897;28;20596;-72
2022/02/17 13:37:18;;;;;;;5.27;1.27;;;;;;;9.51;78.21;96351.53;6205715;28;20541;-73
2022/02/17 13:40:22;;;;;;;4.67;0.97;;;;;;;9.41;79.14;96369.19;6219569;28;20311;-72
2022/02/17 13:43:24;;;;;;;5.10;1.60;;;;;;;9.28;79.17;96391.59;6218833;28;20241;-72
2022/02/17 13:46:27;;;;;;;5.40;1.63;;;;;;;9.49;78.52;96369.28;6225099;28;20749;-72
2022/02/17 13:49:30;;;;;;;3.20;1.20;;;;;;;10.32;74.16;96322.41;6228257;28;20240;-72
2022/02/17 13:52:32;;;;;;;5.43;1.10;;;;;;;10.30;74.38;96338.41;6210716;28;20711;-73
2022/02/17 13:55:56;;;;;;;6.63;1.80;;;;;;;10.33;74.76;96353.09;6228020;28;20235;-73
2022/02/17 13:59:02;;;;;;;6.07;1.57;;;;;;;10.06;71.77;96367.19;6226548;28;20641;-72
2022/02/17 14:02:05;;;;;;;6.97;1.63;;;;;;;10.09;71.99;96351.03;6225712;28;20231;-73
2022/02/17 14:05:08;;;;;;;3.67;1.30;;;;;;;9.98;72.21;96354.75;6228694;28;20702;-72
2022/02/17 14:08:11;;;;;;;4.93;1.40;;;;;;;9.92;71.51;96360.63;6242729;28;20758;-72
2022/02/17 14:11:15;;;;;;;4.97;1.83;;;;;;;9.93;70.51;96364.94;6212581;28;20611;-72
2022/02/17 14:14:17;;;;;;;4.90;1.30;;;;;;;9.82;70.36;96374.88;6216893;28;20229;-72
2022/02/17 14:17:19;;;;;;;4.47;1.53;;;;;;;9.83;68.77;96364.19;6206666;28;20654;-72
2022/02/17 14:20:21;;;;;;;5.77;1.80;;;;;;;9.84;68.58;96357.09;6203807;28;20758;-73
2022/02/17 14:23:29;;;;;;;5.23;1.67;;;;;;;9.84;69.00;96363.22;6204009;28;20613;-72
2022/02/17 14:26:31;;;;;;;6.40;1.90;;;;;;;9.95;65.77;96376.16;6202472;28;20228;-73
2022/02/17 14:29:33;;;;;;;7.63;1.70;;;;;;;10.02;65.71;96363.19;6201636;28;20700;-72
2022/02/17 14:32:35;;;;;;;2.97;1.23;;;;;;;10.03;66.22;96378.03;6214012;28;20760;-72
2022/02/17 14:35:38;;;;;;;6.03;1.50;;;;;;;9.95;66.10;96385.88;6211247;28;20795;-72